sensor_id;sensor_type;location;lat;lon;timestamp;temperature;humidity
2435;DHT22;1228;51.022;6.764;2022-12-24T00:01:23;10.60;99.90
2435;DHT22;1228;51.022;6.764;2022-12-24T00:03:48;10.50;99.90
2435;DHT22;1228;51.022;6.764;2022-12-24T00:06:22;10.50;99.90
2435;DHT22;1228;51.022;6.764;2022-12-24T00:08:48;10.50;99.90
2435;DHT22;1228;51.022;6.764;2022-12-24T00:11:15;10.40;99.90
2435;DHT22;1228;51.022;6.764;2022-12-24T00:13:41;10.40;99.90
2435;DHT22;1228;51.022;6.764;2022-12-24T00:16:07;10.40;99.90
2435;DHT22;1228;51.022;6.764;2022-12-24T00:18:32;10.30;99.90
2435;DHT22;1228;51.022;6.764;2022-12-24T00:20:58;10.30;99.90
2435;DHT22;1228;51.022;6.764;2022-12-24T00:23:23;10.20;99.90
2435;DHT22;1228;51.022;6.764;2022-12-24T00:25:49;10.20;99.90
2435;DHT22;1228;51.022;6.764;2022-12-24T00:28:21;10.20;99.90
2435;DHT22;1228;51.022;6.764;2022-12-24T00:30:46;10.20;99.90
2435;DHT22;1228;51.022;6.764;2022-12-24T00:33:12;10.30;99.90
2435;DHT22;1228;51.022;6.764;2022-12-24T00:35:39;10.40;99.90
2435;DHT22;1228;51.022;6.764;2022-12-24T00:38:06;10.50;99.90
2435;DHT22;1228;51.022;6.764;2022-12-24T00:40:32;10.60;99.90
2435;DHT22;1228;51.022;6.764;2022-12-24T00:42:58;10.70;99.90
2435;DHT22;1228;51.022;6.764;2022-12-24T00:45:24;10.70;99.90
2435;DHT22;1228;51.022;6.764;2022-12-24T00:47:52;10.80;99.90
2435;DHT22;1228;51.022;6.764;2022-12-24T00:50:18;10.80;99.90
2435;DHT22;1228;51.022;6.764;2022-12-24T00:52:43;10.90;99.90
2435;DHT22;1228;51.022;6.764;2022-12-24T00:55:09;10.90;99.90
2435;DHT22;1228;51.022;6.764;2022-12-24T00:57:34;10.90;99.90
2435;DHT22;1228;51.022;6.764;2022-12-24T01:00:00;10.90;99.90
2435;DHT22;1228;51.022;6.764;2022-12-24T01:02:26;11.00;99.90
2435;DHT22;1228;51.022;6.764;2022-12-24T01:04:51;11.00;99.90
2435;DHT22;1228;51.022;6.764;2022-12-24T01:07:36;11.00;99.90
2435;DHT22;1228;51.022;6.764;2022-12-24T01:10:03;10.90;99.90
2435;DHT22;1228;51.022;6.764;2022-12-24T01:12:29;10.90;99.90
2435;DHT22;1228;51.022;6.764;2022-12-24T01:14:55;10.90;99.90
2435;DHT22;1228;51.022;6.764;2022-12-24T01:17:20;10.90;99.90
2435;DHT22;1228;51.022;6.764;2022-12-24T01:19:46;10.90;99.90
2435;DHT22;1228;51.022;6.764;2022-12-24T01:22:12;10.80;99.90
2435;DHT22;1228;51.022;6.764;2022-12-24T01:24:39;10.80;99.90
2435;DHT22;1228;51.022;6.764;2022-12-24T01:27:05;10.80;99.90
2435;DHT22;1228;51.022;6.764;2022-12-24T01:29:31;10.80;99.90
2435;DHT22;1228;51.022;6.764;2022-12-24T01:31:56;10.80;99.90
2435;DHT22;1228;51.022;6.764;2022-12-24T01:34:22;10.90;99.90
2435;DHT22;1228;51.022;6.764;2022-12-24T01:36:48;10.80;99.90
2435;DHT22;1228;51.022;6.764;2022-12-24T01:39:13;10.90;99.90
2435;DHT22;1228;51.022;6.764;2022-12-24T01:41:39;10.90;99.90
2435;DHT22;1228;51.022;6.764;2022-12-24T01:44:32;10.80;99.90
2435;DHT22;1228;51.022;6.764;2022-12-24T01:47:08;10.70;99.90
2435;DHT22;1228;51.022;6.764;2022-12-24T01:49:37;10.70;99.90
2435;DHT22;1228;51.022;6.764;2022-12-24T01:52:12;10.60;99.90
2435;DHT22;1228;51.022;6.764;2022-12-24T01:55:00;10.60;99.90
2435;DHT22;1228;51.022;6.764;2022-12-24T01:57:32;10.50;99.90
2435;DHT22;1228;51.022;6.764;2022-12-24T02:00:03;10.50;99.90
2435;DHT22;1228;51.022;6.764;2022-12-24T02:02:29;10.40;99.90
2435;DHT22;1228;51.022;6.764;2022-12-24T02:05:23;10.40;99.90
2435;DHT22;1228;51.022;6.764;2022-12-24T02:07:52;10.40;99.90
2435;DHT22;1228;51.022;6.764;2022-12-24T02:10:18;10.40;99.90
2435;DHT22;1228;51.022;6.764;2022-12-24T02:12:44;10.30;99.90
2435;DHT22;1228;51.022;6.764;2022-12-24T02:15:13;10.30;99.90
2435;DHT22;1228;51.022;6.764;2022-12-24T02:31:42;10.20;99.90
2435;DHT22;1228;51.022;6.764;2022-12-24T02:34:22;10.30;99.90
2435;DHT22;1228;51.022;6.764;2022-12-24T02:39:28;10.40;99.90
2435;DHT22;1228;51.022;6.764;2022-12-24T02:41:56;10.50;99.90
2435;DHT22;1228;51.022;6.764;2022-12-24T02:44:48;10.50;99.90
2435;DHT22;1228;51.022;6.764;2022-12-24T02:47:17;10.60;99.90
2435;DHT22;1228;51.022;6.764;2022-12-24T02:49:47;10.70;99.90
2435;DHT22;1228;51.022;6.764;2022-12-24T02:52:36;10.80;99.90
2435;DHT22;1228;51.022;6.764;2022-12-24T02:55:36;10.90;99.90
2435;DHT22;1228;51.022;6.764;2022-12-24T03:01:02;10.90;99.90
2435;DHT22;1228;51.022;6.764;2022-12-24T03:08:53;11.00;99.90
2435;DHT22;1228;51.022;6.764;2022-12-24T03:11:19;11.10;99.90
2435;DHT22;1228;51.022;6.764;2022-12-24T03:13:46;11.10;99.90
2435;DHT22;1228;51.022;6.764;2022-12-24T03:16:15;11.10;99.90
2435;DHT22;1228;51.022;6.764;2022-12-24T03:18:45;11.10;99.90
2435;DHT22;1228;51.022;6.764;2022-12-24T03:21:16;11.10;99.90
2435;DHT22;1228;51.022;6.764;2022-12-24T03:23:44;11.00;99.90
2435;DHT22;1228;51.022;6.764;2022-12-24T03:26:12;11.00;99.90
2435;DHT22;1228;51.022;6.764;2022-12-24T03:28:39;10.90;99.90
2435;DHT22;1228;51.022;6.764;2022-12-24T03:31:07;10.90;99.90
2435;DHT22;1228;51.022;6.764;2022-12-24T03:33:33;10.80;99.90
2435;DHT22;1228;51.022;6.764;2022-12-24T03:35:59;10.70;99.90
2435;DHT22;1228;51.022;6.764;2022-12-24T03:38:25;10.60;99.90
2435;DHT22;1228;51.022;6.764;2022-12-24T03:40:50;10.60;99.90
2435;DHT22;1228;51.022;6.764;2022-12-24T03:43:16;10.60;99.90
2435;DHT22;1228;51.022;6.764;2022-12-24T03:45:42;10.50;99.90
2435;DHT22;1228;51.022;6.764;2022-12-24T03:48:07;10.50;99.90
2435;DHT22;1228;51.022;6.764;2022-12-24T03:50:33;10.40;99.90
2435;DHT22;1228;51.022;6.764;2022-12-24T03:52:59;10.40;99.90
2435;DHT22;1228;51.022;6.764;2022-12-24T03:55:24;10.30;99.90
2435;DHT22;1228;51.022;6.764;2022-12-24T03:57:50;10.20;99.90
2435;DHT22;1228;51.022;6.764;2022-12-24T04:00:16;10.20;99.90
2435;DHT22;1228;51.022;6.764;2022-12-24T04:02:42;10.30;99.90
2435;DHT22;1228;51.022;6.764;2022-12-24T04:05:12;10.30;99.90
2435;DHT22;1228;51.022;6.764;2022-12-24T04:07:38;10.30;99.90
2435;DHT22;1228;51.022;6.764;2022-12-24T04:10:03;10.30;99.90
2435;DHT22;1228;51.022;6.764;2022-12-24T04:12:29;10.30;99.90
2435;DHT22;1228;51.022;6.764;2022-12-24T04:14:55;10.30;99.90
2435;DHT22;1228;51.022;6.764;2022-12-24T04:17:20;10.40;99.90
2435;DHT22;1228;51.022;6.764;2022-12-24T04:19:46;10.40;99.90
2435;DHT22;1228;51.022;6.764;2022-12-24T04:22:11;10.40;99.90
2435;DHT22;1228;51.022;6.764;2022-12-24T04:24:37;10.40;99.90
2435;DHT22;1228;51.022;6.764;2022-12-24T04:27:02;10.40;99.90
2435;DHT22;1228;51.022;6.764;2022-12-24T04:29:28;10.40;99.90
2435;DHT22;1228;51.022;6.764;2022-12-24T04:31:54;10.40;99.90
2435;DHT22;1228;51.022;6.764;2022-12-24T04:34:19;10.40;99.90
2435;DHT22;1228;51.022;6.764;2022-12-24T04:36:45;10.40;99.90
2435;DHT22;1228;51.022;6.764;2022-12-24T04:39:10;10.50;99.90
2435;DHT22;1228;51.022;6.764;2022-12-24T04:41:36;10.50;99.90
2435;DHT22;1228;51.022;6.764;2022-12-24T04:44:01;10.50;99.90
2435;DHT22;1228;51.022;6.764;2022-12-24T04:46:28;10.40;99.90
2435;DHT22;1228;51.022;6.764;2022-12-24T04:48:58;10.40;99.90
2435;DHT22;1228;51.022;6.764;2022-12-24T04:51:25;10.30;99.90
2435;DHT22;1228;51.022;6.764;2022-12-24T04:53:50;10.30;99.90
2435;DHT22;1228;51.022;6.764;2022-12-24T04:56:28;10.20;99.90
2435;DHT22;1228;51.022;6.764;2022-12-24T04:58:54;10.20;99.90
2435;DHT22;1228;51.022;6.764;2022-12-24T05:01:22;10.20;99.90
2435;DHT22;1228;51.022;6.764;2022-12-24T05:03:49;10.20;99.90
2435;DHT22;1228;51.022;6.764;2022-12-24T05:06:18;10.30;99.90
2435;DHT22;1228;51.022;6.764;2022-12-24T05:08:44;10.30;99.90
2435;DHT22;1228;51.022;6.764;2022-12-24T05:11:11;10.40;99.90
2435;DHT22;1228;51.022;6.764;2022-12-24T05:13:41;10.40;99.90
2435;DHT22;1228;51.022;6.764;2022-12-24T05:16:07;10.40;99.90
2435;DHT22;1228;51.022;6.764;2022-12-24T05:18:33;10.40;99.90
2435;DHT22;1228;51.022;6.764;2022-12-24T05:20:59;10.40;99.90
2435;DHT22;1228;51.022;6.764;2022-12-24T05:23:25;10.30;99.90
2435;DHT22;1228;51.022;6.764;2022-12-24T05:26:23;10.30;99.90
2435;DHT22;1228;51.022;6.764;2022-12-24T05:28:53;10.30;99.90
2435;DHT22;1228;51.022;6.764;2022-12-24T05:31:20;10.30;99.90
2435;DHT22;1228;51.022;6.764;2022-12-24T05:33:46;10.30;99.90
2435;DHT22;1228;51.022;6.764;2022-12-24T05:36:12;10.30;99.90
2435;DHT22;1228;51.022;6.764;2022-12-24T05:38:38;10.40;99.90
2435;DHT22;1228;51.022;6.764;2022-12-24T05:41:05;10.40;99.90
2435;DHT22;1228;51.022;6.764;2022-12-24T05:43:30;10.50;99.90
2435;DHT22;1228;51.022;6.764;2022-12-24T05:46:00;10.50;99.90
2435;DHT22;1228;51.022;6.764;2022-12-24T05:48:27;10.60;99.90
2435;DHT22;1228;51.022;6.764;2022-12-24T05:50:53;10.60;99.90
2435;DHT22;1228;51.022;6.764;2022-12-24T05:53:19;10.70;99.90
2435;DHT22;1228;51.022;6.764;2022-12-24T05:55:45;10.70;99.90
2435;DHT22;1228;51.022;6.764;2022-12-24T05:58:11;10.70;99.90
2435;DHT22;1228;51.022;6.764;2022-12-24T06:00:37;10.70;99.90
2435;DHT22;1228;51.022;6.764;2022-12-24T06:03:02;10.70;99.90
2435;DHT22;1228;51.022;6.764;2022-12-24T06:05:28;10.80;99.90
2435;DHT22;1228;51.022;6.764;2022-12-24T06:07:54;10.70;99.90
2435;DHT22;1228;51.022;6.764;2022-12-24T06:10:20;10.70;99.90
2435;DHT22;1228;51.022;6.764;2022-12-24T06:12:45;10.70;99.90
2435;DHT22;1228;51.022;6.764;2022-12-24T06:15:11;10.70;99.90
2435;DHT22;1228;51.022;6.764;2022-12-24T06:17:37;10.60;99.90
2435;DHT22;1228;51.022;6.764;2022-12-24T06:20:02;10.60;99.90
2435;DHT22;1228;51.022;6.764;2022-12-24T06:22:28;10.60;99.90
2435;DHT22;1228;51.022;6.764;2022-12-24T06:24:54;10.50;99.90
2435;DHT22;1228;51.022;6.764;2022-12-24T06:27:20;10.50;99.90
2435;DHT22;1228;51.022;6.764;2022-12-24T06:29:45;10.50;99.90
2435;DHT22;1228;51.022;6.764;2022-12-24T06:32:11;10.50;99.90
2435;DHT22;1228;51.022;6.764;2022-12-24T06:34:38;10.50;99.90
2435;DHT22;1228;51.022;6.764;2022-12-24T06:37:03;10.50;99.90
2435;DHT22;1228;51.022;6.764;2022-12-24T06:39:29;10.50;99.90
2435;DHT22;1228;51.022;6.764;2022-12-24T06:41:54;10.50;99.90
2435;DHT22;1228;51.022;6.764;2022-12-24T06:44:20;10.50;99.90
2435;DHT22;1228;51.022;6.764;2022-12-24T06:46:46;10.50;99.90
2435;DHT22;1228;51.022;6.764;2022-12-24T06:49:11;10.50;99.90
2435;DHT22;1228;51.022;6.764;2022-12-24T06:51:37;10.50;99.90
2435;DHT22;1228;51.022;6.764;2022-12-24T06:54:03;10.50;99.90
2435;DHT22;1228;51.022;6.764;2022-12-24T06:56:28;10.60;99.90
2435;DHT22;1228;51.022;6.764;2022-12-24T06:58:54;10.60;99.90
2435;DHT22;1228;51.022;6.764;2022-12-24T07:01:20;10.70;99.90
2435;DHT22;1228;51.022;6.764;2022-12-24T07:03:48;10.70;99.90
2435;DHT22;1228;51.022;6.764;2022-12-24T07:06:23;10.60;99.90
2435;DHT22;1228;51.022;6.764;2022-12-24T07:08:49;10.60;99.90
2435;DHT22;1228;51.022;6.764;2022-12-24T07:11:15;10.70;99.90
2435;DHT22;1228;51.022;6.764;2022-12-24T07:13:41;10.60;99.90
2435;DHT22;1228;51.022;6.764;2022-12-24T07:16:06;10.70;99.90
2435;DHT22;1228;51.022;6.764;2022-12-24T07:18:32;10.60;99.90
2435;DHT22;1228;51.022;6.764;2022-12-24T07:20:58;10.60;99.90
2435;DHT22;1228;51.022;6.764;2022-12-24T07:23:24;10.70;99.90
2435;DHT22;1228;51.022;6.764;2022-12-24T07:25:50;10.70;99.90
2435;DHT22;1228;51.022;6.764;2022-12-24T07:28:15;10.70;99.90
2435;DHT22;1228;51.022;6.764;2022-12-24T07:30:41;10.60;99.90
2435;DHT22;1228;51.022;6.764;2022-12-24T07:33:07;10.60;99.90
2435;DHT22;1228;51.022;6.764;2022-12-24T07:35:33;10.50;99.90
2435;DHT22;1228;51.022;6.764;2022-12-24T07:38:00;10.40;99.90
2435;DHT22;1228;51.022;6.764;2022-12-24T07:40:25;10.50;99.90
2435;DHT22;1228;51.022;6.764;2022-12-24T07:42:51;10.40;99.90
2435;DHT22;1228;51.022;6.764;2022-12-24T07:45:16;10.40;99.90
2435;DHT22;1228;51.022;6.764;2022-12-24T07:47:42;10.40;99.90
2435;DHT22;1228;51.022;6.764;2022-12-24T07:50:08;10.40;99.90
2435;DHT22;1228;51.022;6.764;2022-12-24T07:52:33;10.40;99.90
2435;DHT22;1228;51.022;6.764;2022-12-24T07:54:59;10.40;99.90
2435;DHT22;1228;51.022;6.764;2022-12-24T07:57:25;10.50;99.90
2435;DHT22;1228;51.022;6.764;2022-12-24T07:59:50;10.50;99.90
2435;DHT22;1228;51.022;6.764;2022-12-24T08:02:16;10.50;99.90
2435;DHT22;1228;51.022;6.764;2022-12-24T08:04:41;10.50;99.90
2435;DHT22;1228;51.022;6.764;2022-12-24T08:07:07;10.60;99.90
2435;DHT22;1228;51.022;6.764;2022-12-24T08:09:34;10.70;99.90
2435;DHT22;1228;51.022;6.764;2022-12-24T08:12:00;10.80;99.90
2435;DHT22;1228;51.022;6.764;2022-12-24T08:14:27;10.90;99.90
2435;DHT22;1228;51.022;6.764;2022-12-24T08:16:53;11.00;99.90
2435;DHT22;1228;51.022;6.764;2022-12-24T08:19:19;11.00;99.90
2435;DHT22;1228;51.022;6.764;2022-12-24T08:21:44;11.10;99.90
2435;DHT22;1228;51.022;6.764;2022-12-24T08:24:10;11.10;99.90
2435;DHT22;1228;51.022;6.764;2022-12-24T08:26:36;11.10;99.90
2435;DHT22;1228;51.022;6.764;2022-12-24T08:29:03;11.10;99.90
2435;DHT22;1228;51.022;6.764;2022-12-24T08:31:28;11.20;99.90
2435;DHT22;1228;51.022;6.764;2022-12-24T08:33:54;11.20;99.90
2435;DHT22;1228;51.022;6.764;2022-12-24T08:36:20;11.20;99.90
2435;DHT22;1228;51.022;6.764;2022-12-24T08:38:46;11.20;99.90
2435;DHT22;1228;51.022;6.764;2022-12-24T08:41:12;11.20;99.90
2435;DHT22;1228;51.022;6.764;2022-12-24T08:43:37;11.20;99.90
2435;DHT22;1228;51.022;6.764;2022-12-24T08:46:04;11.20;99.90
2435;DHT22;1228;51.022;6.764;2022-12-24T08:48:31;11.20;99.90
2435;DHT22;1228;51.022;6.764;2022-12-24T08:50:56;11.30;99.90
2435;DHT22;1228;51.022;6.764;2022-12-24T08:53:22;11.30;99.90
2435;DHT22;1228;51.022;6.764;2022-12-24T08:55:48;11.30;99.90
2435;DHT22;1228;51.022;6.764;2022-12-24T08:58:13;11.20;99.90
2435;DHT22;1228;51.022;6.764;2022-12-24T09:00:39;11.20;99.90
2435;DHT22;1228;51.022;6.764;2022-12-24T09:03:05;11.10;99.90
2435;DHT22;1228;51.022;6.764;2022-12-24T09:05:30;11.10;99.90
2435;DHT22;1228;51.022;6.764;2022-12-24T09:07:56;11.10;99.90
2435;DHT22;1228;51.022;6.764;2022-12-24T09:10:22;11.10;99.90
2435;DHT22;1228;51.022;6.764;2022-12-24T09:12:48;11.00;99.90
2435;DHT22;1228;51.022;6.764;2022-12-24T09:15:14;11.10;99.90
2435;DHT22;1228;51.022;6.764;2022-12-24T09:17:39;11.10;99.90
2435;DHT22;1228;51.022;6.764;2022-12-24T09:20:06;11.10;99.90
2435;DHT22;1228;51.022;6.764;2022-12-24T09:22:37;11.10;99.90
2435;DHT22;1228;51.022;6.764;2022-12-24T09:25:03;11.20;99.90
2435;DHT22;1228;51.022;6.764;2022-12-24T09:27:30;11.10;99.90
2435;DHT22;1228;51.022;6.764;2022-12-24T09:29:56;11.10;99.90
2435;DHT22;1228;51.022;6.764;2022-12-24T09:32:22;11.10;99.90
2435;DHT22;1228;51.022;6.764;2022-12-24T09:34:47;11.00;99.90
2435;DHT22;1228;51.022;6.764;2022-12-24T09:37:13;11.00;99.90
2435;DHT22;1228;51.022;6.764;2022-12-24T09:39:38;11.00;99.90
2435;DHT22;1228;51.022;6.764;2022-12-24T09:44:50;11.10;99.90
2435;DHT22;1228;51.022;6.764;2022-12-24T09:47:23;11.20;99.90
2435;DHT22;1228;51.022;6.764;2022-12-24T09:49:52;11.30;99.90
2435;DHT22;1228;51.022;6.764;2022-12-24T09:52:40;11.40;99.90
2435;DHT22;1228;51.022;6.764;2022-12-24T09:55:41;11.50;99.90
2435;DHT22;1228;51.022;6.764;2022-12-24T09:58:30;11.50;99.90
2435;DHT22;1228;51.022;6.764;2022-12-24T10:00:58;11.60;99.90
2435;DHT22;1228;51.022;6.764;2022-12-24T10:03:23;11.60;99.90
2435;DHT22;1228;51.022;6.764;2022-12-24T10:08:52;11.70;99.90
2435;DHT22;1228;51.022;6.764;2022-12-24T10:27:18;12.00;99.90
2435;DHT22;1228;51.022;6.764;2022-12-24T10:29:51;12.10;99.90
2435;DHT22;1228;51.022;6.764;2022-12-24T10:32:25;12.10;99.90
2435;DHT22;1228;51.022;6.764;2022-12-24T10:37:29;12.20;99.90
2435;DHT22;1228;51.022;6.764;2022-12-24T10:39:56;12.20;99.90
2435;DHT22;1228;51.022;6.764;2022-12-24T10:42:26;12.30;99.90
2435;DHT22;1228;51.022;6.764;2022-12-24T10:45:00;12.20;99.90
2435;DHT22;1228;51.022;6.764;2022-12-24T10:47:27;12.20;99.90
2435;DHT22;1228;51.022;6.764;2022-12-24T10:50:14;12.10;99.90
2435;DHT22;1228;51.022;6.764;2022-12-24T10:52:43;12.10;99.90
2435;DHT22;1228;51.022;6.764;2022-12-24T10:57:39;12.10;99.90
2435;DHT22;1228;51.022;6.764;2022-12-24T11:00:06;12.10;99.90
2435;DHT22;1228;51.022;6.764;2022-12-24T11:02:39;12.10;99.90
2435;DHT22;1228;51.022;6.764;2022-12-24T11:05:26;12.10;99.90
2435;DHT22;1228;51.022;6.764;2022-12-24T11:10:41;12.00;99.90
2435;DHT22;1228;51.022;6.764;2022-12-24T11:13:29;12.10;99.90
2435;DHT22;1228;51.022;6.764;2022-12-24T11:18:32;12.30;99.90
2435;DHT22;1228;51.022;6.764;2022-12-24T11:20:59;12.30;99.90
2435;DHT22;1228;51.022;6.764;2022-12-24T11:23:26;12.40;99.90
2435;DHT22;1228;51.022;6.764;2022-12-24T11:25:53;12.40;99.90
2435;DHT22;1228;51.022;6.764;2022-12-24T11:28:27;12.50;99.90
2435;DHT22;1228;51.022;6.764;2022-12-24T11:33:23;12.50;99.90
2435;DHT22;1228;51.022;6.764;2022-12-24T11:35:59;12.50;99.90
2435;DHT22;1228;51.022;6.764;2022-12-24T11:38:27;12.50;99.90
2435;DHT22;1228;51.022;6.764;2022-12-24T11:41:10;12.40;99.90
2435;DHT22;1228;51.022;6.764;2022-12-24T11:43:40;12.40;99.90
2435;DHT22;1228;51.022;6.764;2022-12-24T11:51:35;12.70;99.90
2435;DHT22;1228;51.022;6.764;2022-12-24T11:54:25;12.90;99.90
2435;DHT22;1228;51.022;6.764;2022-12-24T11:56:54;12.80;99.90
2435;DHT22;1228;51.022;6.764;2022-12-24T11:59:34;12.80;99.90
2435;DHT22;1228;51.022;6.764;2022-12-24T12:04:41;12.70;99.90
2435;DHT22;1228;51.022;6.764;2022-12-24T12:07:14;12.70;99.90
2435;DHT22;1228;51.022;6.764;2022-12-24T12:09:46;12.50;99.90
2435;DHT22;1228;51.022;6.764;2022-12-24T12:12:18;12.40;99.90
2435;DHT22;1228;51.022;6.764;2022-12-24T12:14:50;12.30;99.90
2435;DHT22;1228;51.022;6.764;2022-12-24T12:17:38;12.50;99.90
2435;DHT22;1228;51.022;6.764;2022-12-24T12:20:15;12.60;99.90
2435;DHT22;1228;51.022;6.764;2022-12-24T12:25:21;12.90;99.90
2435;DHT22;1228;51.022;6.764;2022-12-24T12:27:50;12.90;99.90
2435;DHT22;1228;51.022;6.764;2022-12-24T12:30:19;12.80;99.90
2435;DHT22;1228;51.022;6.764;2022-12-24T12:35:33;12.50;99.90
2435;DHT22;1228;51.022;6.764;2022-12-24T12:38:02;12.40;99.90
2435;DHT22;1228;51.022;6.764;2022-12-24T12:44:00;12.20;99.90
2435;DHT22;1228;51.022;6.764;2022-12-24T12:46:52;12.20;99.90
2435;DHT22;1228;51.022;6.764;2022-12-24T12:57:33;12.20;99.90
2435;DHT22;1228;51.022;6.764;2022-12-24T13:00:11;12.40;99.90
2435;DHT22;1228;51.022;6.764;2022-12-24T13:11:30;13.70;85.10
2435;DHT22;1228;51.022;6.764;2022-12-24T13:19:32;14.10;63.40
2435;DHT22;1228;51.022;6.764;2022-12-24T13:22:01;14.10;30.00
2435;DHT22;1228;51.022;6.764;2022-12-24T13:24:28;14.00;43.10
2435;DHT22;1228;51.022;6.764;2022-12-24T13:27:16;13.80;59.70
2435;DHT22;1228;51.022;6.764;2022-12-24T13:29:52;13.70;81.20
2435;DHT22;1228;51.022;6.764;2022-12-24T13:37:45;13.50;99.90
2435;DHT22;1228;51.022;6.764;2022-12-24T13:42:47;13.60;46.70
2435;DHT22;1228;51.022;6.764;2022-12-24T13:50:44;13.40;15.80
2435;DHT22;1228;51.022;6.764;2022-12-24T13:53:26;13.30;15.90
2435;DHT22;1228;51.022;6.764;2022-12-24T13:56:06;13.20;50.60
2435;DHT22;1228;51.022;6.764;2022-12-24T13:58:34;13.10;62.30
2435;DHT22;1228;51.022;6.764;2022-12-24T14:01:07;13.00;61.10
2435;DHT22;1228;51.022;6.764;2022-12-24T14:03:44;12.90;71.30
2435;DHT22;1228;51.022;6.764;2022-12-24T14:06:35;12.70;67.40
2435;DHT22;1228;51.022;6.764;2022-12-24T14:09:17;12.60;94.00
2435;DHT22;1228;51.022;6.764;2022-12-24T14:19:46;12.20;99.90
2435;DHT22;1228;51.022;6.764;2022-12-24T14:30:05;11.80;99.90
2435;DHT22;1228;51.022;6.764;2022-12-24T14:32:39;11.80;99.90
2435;DHT22;1228;51.022;6.764;2022-12-24T14:37:48;11.60;99.90
2435;DHT22;1228;51.022;6.764;2022-12-24T14:40:21;11.60;99.90
2435;DHT22;1228;51.022;6.764;2022-12-24T14:43:10;11.50;99.90
2435;DHT22;1228;51.022;6.764;2022-12-24T14:45:47;11.40;99.90
2435;DHT22;1228;51.022;6.764;2022-12-24T14:48:24;11.40;99.90
2435;DHT22;1228;51.022;6.764;2022-12-24T14:56:27;11.10;99.90
2435;DHT22;1228;51.022;6.764;2022-12-24T14:58:52;11.10;99.90
2435;DHT22;1228;51.022;6.764;2022-12-24T15:01:23;10.90;99.90
2435;DHT22;1228;51.022;6.764;2022-12-24T15:09:34;10.70;99.90
2435;DHT22;1228;51.022;6.764;2022-12-24T15:12:02;10.60;99.90
2435;DHT22;1228;51.022;6.764;2022-12-24T15:14:32;10.50;99.90
2435;DHT22;1228;51.022;6.764;2022-12-24T15:17:02;10.40;99.90
2435;DHT22;1228;51.022;6.764;2022-12-24T15:19:37;10.40;99.90
2435;DHT22;1228;51.022;6.764;2022-12-24T15:22:09;10.30;99.90
2435;DHT22;1228;51.022;6.764;2022-12-24T15:24:44;10.30;99.90
2435;DHT22;1228;51.022;6.764;2022-12-24T15:27:16;10.20;99.90
2435;DHT22;1228;51.022;6.764;2022-12-24T15:29:44;10.10;99.90
2435;DHT22;1228;51.022;6.764;2022-12-24T15:32:12;10.10;99.90
2435;DHT22;1228;51.022;6.764;2022-12-24T15:34:44;10.00;99.90
2435;DHT22;1228;51.022;6.764;2022-12-24T15:37:19;10.00;99.90
2435;DHT22;1228;51.022;6.764;2022-12-24T15:42:23;9.80;99.90
2435;DHT22;1228;51.022;6.764;2022-12-24T15:45:16;9.80;99.90
2435;DHT22;1228;51.022;6.764;2022-12-24T15:48:08;9.70;99.90
2435;DHT22;1228;51.022;6.764;2022-12-24T15:50:36;9.70;99.90
2435;DHT22;1228;51.022;6.764;2022-12-24T15:53:07;9.70;99.90
2435;DHT22;1228;51.022;6.764;2022-12-24T15:58:33;9.70;99.90
2435;DHT22;1228;51.022;6.764;2022-12-24T16:03:31;9.70;99.90
2435;DHT22;1228;51.022;6.764;2022-12-24T16:06:01;9.70;99.90
2435;DHT22;1228;51.022;6.764;2022-12-24T16:08:34;9.70;99.90
2435;DHT22;1228;51.022;6.764;2022-12-24T16:11:19;9.70;99.90
2435;DHT22;1228;51.022;6.764;2022-12-24T16:16:41;9.70;99.90
2435;DHT22;1228;51.022;6.764;2022-12-24T16:19:16;9.70;99.90
2435;DHT22;1228;51.022;6.764;2022-12-24T16:21:42;9.60;99.90
2435;DHT22;1228;51.022;6.764;2022-12-24T16:24:20;9.60;99.90
2435;DHT22;1228;51.022;6.764;2022-12-24T16:26:47;9.50;99.90
2435;DHT22;1228;51.022;6.764;2022-12-24T16:29:13;9.50;99.90
2435;DHT22;1228;51.022;6.764;2022-12-24T16:31:49;9.40;99.90
2435;DHT22;1228;51.022;6.764;2022-12-24T16:34:15;9.30;99.90
2435;DHT22;1228;51.022;6.764;2022-12-24T16:36:45;9.30;99.90
2435;DHT22;1228;51.022;6.764;2022-12-24T16:39:31;9.20;99.90
2435;DHT22;1228;51.022;6.764;2022-12-24T16:41:59;9.10;99.90
2435;DHT22;1228;51.022;6.764;2022-12-24T16:44:44;8.90;99.90
2435;DHT22;1228;51.022;6.764;2022-12-24T16:47:17;8.80;99.90
2435;DHT22;1228;51.022;6.764;2022-12-24T16:49:43;8.70;99.90
2435;DHT22;1228;51.022;6.764;2022-12-24T16:52:18;8.60;99.90
2435;DHT22;1228;51.022;6.764;2022-12-24T16:54:45;8.60;99.90
2435;DHT22;1228;51.022;6.764;2022-12-24T16:57:11;8.50;99.90
2435;DHT22;1228;51.022;6.764;2022-12-24T16:59:37;8.50;99.90
2435;DHT22;1228;51.022;6.764;2022-12-24T17:02:03;8.40;99.90
2435;DHT22;1228;51.022;6.764;2022-12-24T17:04:33;8.40;99.90
2435;DHT22;1228;51.022;6.764;2022-12-24T17:06:59;8.40;99.90
2435;DHT22;1228;51.022;6.764;2022-12-24T17:09:25;8.40;99.90
2435;DHT22;1228;51.022;6.764;2022-12-24T17:11:51;8.30;99.90
2435;DHT22;1228;51.022;6.764;2022-12-24T17:14:17;8.30;99.90
2435;DHT22;1228;51.022;6.764;2022-12-24T17:16:42;8.30;99.90
2435;DHT22;1228;51.022;6.764;2022-12-24T17:19:08;8.20;99.90
2435;DHT22;1228;51.022;6.764;2022-12-24T17:21:34;8.20;99.90
2435;DHT22;1228;51.022;6.764;2022-12-24T17:24:00;8.20;99.90
2435;DHT22;1228;51.022;6.764;2022-12-24T17:26:26;8.10;99.90
2435;DHT22;1228;51.022;6.764;2022-12-24T17:28:53;8.10;99.90
2435;DHT22;1228;51.022;6.764;2022-12-24T17:31:19;8.10;99.90
2435;DHT22;1228;51.022;6.764;2022-12-24T17:33:47;8.00;99.90
2435;DHT22;1228;51.022;6.764;2022-12-24T17:36:13;7.90;99.90
2435;DHT22;1228;51.022;6.764;2022-12-24T17:38:39;7.80;99.90
2435;DHT22;1228;51.022;6.764;2022-12-24T17:41:08;7.80;99.90
2435;DHT22;1228;51.022;6.764;2022-12-24T17:43:34;7.80;99.90
2435;DHT22;1228;51.022;6.764;2022-12-24T17:46:08;7.80;99.90
2435;DHT22;1228;51.022;6.764;2022-12-24T17:48:34;7.80;99.90
2435;DHT22;1228;51.022;6.764;2022-12-24T17:51:11;7.80;99.90
2435;DHT22;1228;51.022;6.764;2022-12-24T17:53:38;7.90;99.90
2435;DHT22;1228;51.022;6.764;2022-12-24T17:56:05;7.90;99.90
2435;DHT22;1228;51.022;6.764;2022-12-24T17:58:31;7.90;99.90
2435;DHT22;1228;51.022;6.764;2022-12-24T18:00:58;7.80;99.90
2435;DHT22;1228;51.022;6.764;2022-12-24T18:03:24;7.80;99.90
2435;DHT22;1228;51.022;6.764;2022-12-24T18:05:50;7.80;99.90
2435;DHT22;1228;51.022;6.764;2022-12-24T18:08:17;7.80;99.90
2435;DHT22;1228;51.022;6.764;2022-12-24T18:10:43;7.70;99.90
2435;DHT22;1228;51.022;6.764;2022-12-24T18:13:09;7.70;99.90
2435;DHT22;1228;51.022;6.764;2022-12-24T18:15:37;7.70;99.90
2435;DHT22;1228;51.022;6.764;2022-12-24T18:18:04;7.80;99.90
2435;DHT22;1228;51.022;6.764;2022-12-24T18:20:33;7.80;99.90
2435;DHT22;1228;51.022;6.764;2022-12-24T18:22:59;7.80;99.90
2435;DHT22;1228;51.022;6.764;2022-12-24T18:25:25;7.80;99.90
2435;DHT22;1228;51.022;6.764;2022-12-24T18:27:51;7.90;99.90
2435;DHT22;1228;51.022;6.764;2022-12-24T18:30:17;7.90;99.90
2435;DHT22;1228;51.022;6.764;2022-12-24T18:32:43;8.00;99.90
2435;DHT22;1228;51.022;6.764;2022-12-24T18:35:09;8.10;99.90
2435;DHT22;1228;51.022;6.764;2022-12-24T18:37:35;8.20;99.90
2435;DHT22;1228;51.022;6.764;2022-12-24T18:40:00;8.30;99.90
2435;DHT22;1228;51.022;6.764;2022-12-24T18:42:27;8.50;99.90
2435;DHT22;1228;51.022;6.764;2022-12-24T18:44:52;8.60;99.90
2435;DHT22;1228;51.022;6.764;2022-12-24T18:47:18;8.70;99.90
2435;DHT22;1228;51.022;6.764;2022-12-24T18:49:44;8.70;99.90